createdAt,value
2023-08-11T00:01:52.914Z,9.57
2023-08-11T00:04:19.637Z,9.63
2023-08-11T00:06:46.423Z,9.59
2023-08-11T00:09:13.697Z,9.60
2023-08-11T00:11:42.285Z,9.61
2023-08-11T00:14:08.935Z,9.58
2023-08-11T00:16:35.909Z,9.55
2023-08-11T00:19:02.707Z,9.56
2023-08-11T00:21:29.418Z,9.49
2023-08-11T00:23:56.140Z,9.48
2023-08-11T00:26:22.881Z,9.44
2023-08-11T00:28:49.662Z,9.50
2023-08-11T00:31:16.618Z,9.53
2023-08-11T00:33:47.691Z,9.50
2023-08-11T00:36:18.251Z,9.44
2023-08-11T00:38:45.202Z,9.42
2023-08-11T00:41:12.438Z,9.37
2023-08-11T00:43:39.146Z,9.32
2023-08-11T00:46:14.447Z,9.19
2023-08-11T00:48:43.282Z,9.26
2023-08-11T00:51:14.655Z,9.33
2023-08-11T00:53:41.762Z,9.37
2023-08-11T00:56:09.204Z,9.26
2023-08-11T00:58:36.368Z,9.09
2023-08-11T01:01:05.473Z,8.96
2023-08-11T01:03:32.372Z,8.98
2023-08-11T01:06:17.994Z,8.83
2023-08-11T01:08:54.021Z,8.61
2023-08-11T01:11:35.035Z,8.55
2023-08-11T01:14:10.870Z,8.40
2023-08-11T01:16:38.282Z,8.31
2023-08-11T01:19:07.999Z,8.26
2023-08-11T01:21:37.419Z,8.33
2023-08-11T01:24:04.554Z,8.26
2023-08-11T01:26:31.554Z,8.20
2023-08-11T01:28:58.251Z,8.16
2023-08-11T01:31:25.032Z,8.23
2023-08-11T01:33:51.698Z,8.13
2023-08-11T01:36:18.504Z,8.06
2023-08-11T01:38:45.140Z,8.14
2023-08-11T01:41:13.145Z,8.10
2023-08-11T01:43:41.080Z,8.03
2023-08-11T01:46:09.837Z,7.95
2023-08-11T01:48:38.197Z,7.85
2023-08-11T01:51:04.978Z,7.88
2023-08-11T01:53:31.770Z,7.89
2023-08-11T01:55:58.931Z,7.89
2023-08-11T01:58:25.800Z,7.90
2023-08-11T02:00:53.119Z,7.89
2023-08-11T02:03:19.904Z,7.92
2023-08-11T02:05:46.621Z,8.09
2023-08-11T02:08:18.592Z,8.26
2023-08-11T02:10:46.799Z,8.06
2023-08-11T02:13:13.874Z,7.89
2023-08-11T02:15:40.971Z,7.89
2023-08-11T02:18:07.725Z,7.81
2023-08-11T02:20:34.474Z,7.78
2023-08-11T02:23:02.437Z,7.83
2023-08-11T02:25:29.265Z,7.96
2023-08-11T02:27:55.973Z,7.81
2023-08-11T02:30:23.569Z,7.68
2023-08-11T02:32:51.694Z,7.61
2023-08-11T02:35:19.058Z,7.47
2023-08-11T02:37:46.285Z,7.66
2023-08-11T02:40:13.300Z,7.75
2023-08-11T02:42:49.746Z,7.71
2023-08-11T02:45:16.587Z,7.70
2023-08-11T02:47:43.816Z,7.64
2023-08-11T02:50:11.195Z,7.72
2023-08-11T02:52:38.601Z,7.53
2023-08-11T02:55:06.849Z,7.41
2023-08-11T02:57:34.928Z,7.27
2023-08-11T03:00:08.965Z,7.16
2023-08-11T03:02:35.728Z,7.07
2023-08-11T03:05:02.509Z,7.06
2023-08-11T03:07:29.166Z,7.04
2023-08-11T03:09:57.055Z,7.01
2023-08-11T03:12:23.702Z,6.78
2023-08-11T03:14:50.369Z,7.18
2023-08-11T03:17:17.079Z,7.40
2023-08-11T03:19:43.862Z,7.31
2023-08-11T03:22:10.574Z,7.26
2023-08-11T03:24:37.265Z,7.26
2023-08-11T03:27:04.151Z,7.23
2023-08-11T03:29:32.113Z,7.06
2023-08-11T03:31:58.785Z,6.92
2023-08-11T03:34:25.520Z,6.86
2023-08-11T03:36:52.270Z,6.86
2023-08-11T03:39:18.973Z,6.82
2023-08-11T03:41:45.633Z,6.72
2023-08-11T03:44:12.286Z,6.69
2023-08-11T03:46:39.085Z,6.87
2023-08-11T03:49:07.900Z,6.86
2023-08-11T03:51:34.783Z,6.82
2023-08-11T03:54:03.648Z,6.57
2023-08-11T03:56:31.120Z,6.64
2023-08-11T03:58:57.808Z,6.58
2023-08-11T04:01:24.610Z,6.53
2023-08-11T04:03:51.364Z,6.66
2023-08-11T04:06:18.466Z,6.60
2023-08-11T04:08:45.486Z,6.60
2023-08-11T04:11:12.483Z,6.44
2023-08-11T04:13:39.277Z,6.60
2023-08-11T04:16:05.944Z,6.66
2023-08-11T04:18:32.644Z,6.76
2023-08-11T04:20:59.352Z,6.79
2023-08-11T04:23:26.392Z,6.89
2023-08-11T04:25:53.142Z,6.85
2023-08-11T04:28:19.812Z,6.85
2023-08-11T04:30:46.569Z,6.94
2023-08-11T04:33:13.865Z,6.94
2023-08-11T04:35:40.608Z,7.08
2023-08-11T04:38:07.321Z,7.11
2023-08-11T04:40:35.106Z,7.22
2023-08-11T04:43:01.920Z,7.17
2023-08-11T04:45:29.598Z,7.15
2023-08-11T04:47:56.493Z,7.16
2023-08-11T04:50:23.175Z,7.27
2023-08-11T04:52:50.264Z,7.31
2023-08-11T04:55:16.986Z,7.34
2023-08-11T04:57:43.708Z,7.43
2023-08-11T05:00:18.296Z,7.65
2023-08-11T05:02:46.048Z,7.91
2023-08-11T05:05:13.621Z,7.99
2023-08-11T05:07:41.215Z,8.22
2023-08-11T05:10:08.583Z,8.18
2023-08-11T05:12:39.029Z,8.18
2023-08-11T05:15:06.306Z,8.26
2023-08-11T05:17:33.750Z,8.41
2023-08-11T05:20:00.704Z,8.45
2023-08-11T05:22:27.437Z,8.55
2023-08-11T05:24:54.155Z,8.74
2023-08-11T05:27:20.977Z,8.94
2023-08-11T05:29:49.338Z,9.09
2023-08-11T05:32:16.174Z,9.21
2023-08-11T05:34:43.628Z,9.30
2023-08-11T05:37:10.582Z,9.62
2023-08-11T05:39:40.471Z,10.08
2023-08-11T05:42:08.053Z,10.62
2023-08-11T05:44:34.846Z,11.26
2023-08-11T05:47:02.124Z,11.78
2023-08-11T05:49:29.350Z,12.01
2023-08-11T05:51:56.695Z,12.36
2023-08-11T05:54:24.061Z,13.02
2023-08-11T05:56:54.112Z,13.36
2023-08-11T05:59:25.018Z,13.56
2023-08-11T06:01:51.964Z,13.86
2023-08-11T06:04:18.689Z,14.54
2023-08-11T06:06:45.477Z,15.04
2023-08-11T06:09:12.286Z,15.29
2023-08-11T06:11:39.150Z,15.47
2023-08-11T06:14:05.928Z,15.93
2023-08-11T06:16:32.615Z,16.62
2023-08-11T06:18:59.557Z,17.21
2023-08-11T06:21:26.268Z,17.89
2023-08-11T06:23:53.277Z,18.45
2023-08-11T06:26:20.199Z,18.52
2023-08-11T06:28:46.844Z,18.23
2023-08-11T06:31:13.586Z,17.86
2023-08-11T06:33:40.266Z,17.78
2023-08-11T06:36:07.109Z,18.03
2023-08-11T06:38:34.311Z,17.80
2023-08-11T06:41:01.351Z,17.38
2023-08-11T06:43:28.407Z,16.99
2023-08-11T06:45:56.408Z,16.96
2023-08-11T06:48:24.408Z,16.99
2023-08-11T06:50:51.603Z,16.80
2023-08-11T06:53:29.241Z,16.92
2023-08-11T06:55:56.610Z,16.88
2023-08-11T06:58:25.892Z,16.90
2023-08-11T07:00:53.585Z,16.89
2023-08-11T07:03:20.862Z,17.03
2023-08-11T07:05:47.548Z,16.91
2023-08-11T07:08:14.685Z,16.97
2023-08-11T07:10:41.513Z,17.00
2023-08-11T07:13:08.132Z,17.19
2023-08-11T07:15:37.369Z,17.21
2023-08-11T07:18:05.609Z,17.17
2023-08-11T07:20:32.311Z,17.16
2023-08-11T07:22:58.997Z,17.34
2023-08-11T07:25:26.014Z,17.30
2023-08-11T07:27:52.687Z,17.42
2023-08-11T07:30:20.142Z,17.51
2023-08-11T07:32:46.830Z,17.38
2023-08-11T07:35:13.763Z,17.52
2023-08-11T07:37:40.452Z,17.55
2023-08-11T07:40:07.841Z,17.44
2023-08-11T07:42:34.790Z,17.54
2023-08-11T07:45:01.560Z,17.53
2023-08-11T07:47:28.394Z,17.62
2023-08-11T07:49:57.957Z,17.68
2023-08-11T07:52:24.999Z,17.54
2023-08-11T07:54:51.844Z,17.57
2023-08-11T07:57:18.726Z,17.77
2023-08-11T07:59:45.702Z,17.67
2023-08-11T08:02:14.287Z,17.61
2023-08-11T08:04:40.947Z,17.72
2023-08-11T08:07:07.872Z,17.93
2023-08-11T08:09:35.305Z,17.83
2023-08-11T08:12:03.247Z,17.74
2023-08-11T08:14:30.428Z,17.66
2023-08-11T08:16:59.692Z,17.64
2023-08-11T08:19:26.459Z,17.77
2023-08-11T08:21:53.244Z,17.92
2023-08-11T08:24:20.017Z,17.96
2023-08-11T08:26:49.095Z,17.88
2023-08-11T08:29:15.989Z,17.73
2023-08-11T08:31:42.718Z,17.84
2023-08-11T08:34:09.482Z,17.83
2023-08-11T08:36:36.214Z,17.93
2023-08-11T08:39:03.241Z,17.88
2023-08-11T08:41:32.357Z,17.85
2023-08-11T08:44:01.397Z,17.84
2023-08-11T08:46:31.931Z,17.74
2023-08-11T08:49:04.529Z,17.74
2023-08-11T08:51:32.297Z,17.78
2023-08-11T08:53:59.352Z,17.78
2023-08-11T08:56:27.701Z,18.04
2023-08-11T08:58:54.481Z,18.16
2023-08-11T09:01:21.655Z,18.22
2023-08-11T09:03:49.198Z,18.29
2023-08-11T09:06:16.754Z,18.32
2023-08-11T09:08:43.608Z,18.43
2023-08-11T09:11:10.424Z,18.54
2023-08-11T09:13:39.266Z,18.65
2023-08-11T09:16:06.598Z,18.79
2023-08-11T09:18:33.951Z,18.80
2023-08-11T09:21:02.593Z,18.95
2023-08-11T09:23:30.043Z,18.92
2023-08-11T09:25:56.793Z,18.92
2023-08-11T09:28:23.507Z,18.82
2023-08-11T09:30:51.804Z,18.94
2023-08-11T09:33:19.446Z,18.97
2023-08-11T09:35:46.399Z,19.21
2023-08-11T09:38:13.360Z,19.14
2023-08-11T09:40:42.312Z,19.08
2023-08-11T09:43:12.837Z,19.08
2023-08-11T09:45:40.181Z,19.24
2023-08-11T09:48:07.209Z,19.07
2023-08-11T09:50:36.372Z,19.01
2023-08-11T09:53:06.235Z,19.02
2023-08-11T09:55:34.163Z,19.11
2023-08-11T09:58:03.302Z,19.30
2023-08-11T10:00:32.074Z,19.27
2023-08-11T10:03:12.522Z,19.46
2023-08-11T10:05:44.191Z,19.80
2023-08-11T10:08:18.263Z,19.82
2023-08-11T10:10:45.069Z,19.89
2023-08-11T10:13:24.461Z,19.75
2023-08-11T10:15:53.052Z,19.70
2023-08-11T10:18:21.593Z,19.84
2023-08-11T10:20:51.477Z,19.67
2023-08-11T10:23:21.284Z,19.71
2023-08-11T10:25:49.071Z,19.64
2023-08-11T10:28:18.234Z,19.72
2023-08-11T10:30:54.892Z,19.74
2023-08-11T10:33:21.635Z,19.93
2023-08-11T10:35:49.955Z,19.85
2023-08-11T10:38:30.654Z,19.78
2023-08-11T10:41:01.668Z,19.76
2023-08-11T10:43:32.109Z,19.84
2023-08-11T10:46:16.279Z,20.09
2023-08-11T10:48:43.776Z,20.20
2023-08-11T10:51:29.589Z,20.31
2023-08-11T10:54:12.818Z,20.41
2023-08-11T10:56:40.683Z,20.27
2023-08-11T10:59:28.389Z,20.43
2023-08-11T11:01:56.079Z,20.66
2023-08-11T11:04:24.817Z,20.68
2023-08-11T11:06:52.350Z,21.23
2023-08-11T11:09:22.034Z,21.69
2023-08-11T11:11:51.863Z,22.20
2023-08-11T11:14:18.757Z,22.40
2023-08-11T11:16:45.608Z,22.69
2023-08-11T11:19:12.351Z,22.50
2023-08-11T11:21:42.980Z,22.73
2023-08-11T11:24:11.077Z,22.99
2023-08-11T11:26:38.369Z,23.12
2023-08-11T11:29:06.905Z,22.90
2023-08-11T11:31:37.207Z,22.84
2023-08-11T11:34:04.893Z,22.59
2023-08-11T11:36:32.529Z,22.75
2023-08-11T11:39:01.411Z,22.49
2023-08-11T11:41:29.747Z,22.63
2023-08-11T11:43:56.407Z,22.75
2023-08-11T11:46:23.680Z,22.88
2023-08-11T11:48:55.147Z,22.67
2023-08-11T11:51:25.834Z,22.55
2023-08-11T11:53:55.361Z,22.51
2023-08-11T11:56:22.914Z,23.04
2023-08-11T11:58:50.555Z,23.36
2023-08-11T12:01:22.660Z,23.86
2023-08-11T12:03:50.737Z,24.94
2023-08-11T12:06:19.449Z,25.43
2023-08-11T12:08:47.259Z,26.22
2023-08-11T12:11:15.923Z,26.97
2023-08-11T12:13:47.346Z,29.23
2023-08-11T12:16:15.086Z,27.05
2023-08-11T12:18:42.660Z,26.47
2023-08-11T12:21:12.190Z,25.36
2023-08-11T12:23:39.257Z,24.61
2023-08-11T12:26:06.441Z,24.35
2023-08-11T12:28:33.383Z,24.56
2023-08-11T12:31:01.064Z,24.36
2023-08-11T12:33:28.960Z,24.99
2023-08-11T12:35:55.829Z,25.45
2023-08-11T12:38:22.566Z,25.95
2023-08-11T12:40:50.147Z,27.39
2023-08-11T12:43:17.288Z,27.89
2023-08-11T12:45:48.579Z,29.01
2023-08-11T12:48:15.604Z,28.45
2023-08-11T12:50:42.495Z,28.15
2023-08-11T12:53:09.440Z,27.78
2023-08-11T12:55:38.475Z,27.40
2023-08-11T12:58:05.917Z,26.96
2023-08-11T13:00:34.167Z,25.71
2023-08-11T13:03:01.011Z,25.20
2023-08-11T13:05:28.299Z,25.01
2023-08-11T13:07:54.955Z,25.06
2023-08-11T13:10:22.510Z,25.14
2023-08-11T13:12:51.822Z,25.04
2023-08-11T13:15:18.537Z,24.49
2023-08-11T13:17:48.471Z,23.78
2023-08-11T13:20:16.398Z,23.60
2023-08-11T13:22:43.424Z,23.62
2023-08-11T13:25:10.984Z,23.24
2023-08-11T13:27:39.052Z,23.37
2023-08-11T13:30:10.354Z,23.70
2023-08-11T13:32:37.795Z,23.63
2023-08-11T13:35:06.277Z,23.93
2023-08-11T13:37:33.151Z,24.39
2023-08-11T13:40:01.628Z,26.03
2023-08-11T13:42:28.467Z,25.57
2023-08-11T13:44:55.228Z,24.89
2023-08-11T13:47:22.017Z,24.56
2023-08-11T13:49:48.706Z,24.34
2023-08-11T13:52:15.429Z,23.93
2023-08-11T13:54:56.836Z,23.52
2023-08-11T13:57:23.568Z,23.45
2023-08-11T13:59:50.276Z,23.52
2023-08-11T14:02:17.074Z,23.73
2023-08-11T14:04:43.824Z,23.83
2023-08-11T14:07:26.783Z,23.82
2023-08-11T14:09:56.533Z,23.52
2023-08-11T14:12:23.343Z,23.90
2023-08-11T14:14:50.034Z,23.93
2023-08-11T14:17:17.149Z,23.88
2023-08-11T14:19:43.726Z,24.04
2023-08-11T14:22:10.792Z,23.91
2023-08-11T14:24:37.706Z,24.07
2023-08-11T14:27:04.430Z,24.40
2023-08-11T14:29:32.059Z,24.38
2023-08-11T14:32:09.591Z,24.17
2023-08-11T14:34:45.547Z,23.78
2023-08-11T14:37:16.814Z,23.47
2023-08-11T14:39:44.169Z,23.47
2023-08-11T14:42:11.096Z,23.68
2023-08-11T14:44:37.939Z,23.96
2023-08-11T14:47:06.341Z,24.30
2023-08-11T14:49:33.043Z,24.46
2023-08-11T14:52:00.226Z,24.21
2023-08-11T14:54:28.038Z,24.09
2023-08-11T14:56:55.651Z,24.14
2023-08-11T14:59:22.354Z,24.09
2023-08-11T15:01:49.157Z,23.81
2023-08-11T15:04:15.816Z,23.88
2023-08-11T15:06:42.454Z,23.52
2023-08-11T15:09:09.497Z,23.54
2023-08-11T15:11:36.782Z,23.74
2023-08-11T15:14:03.771Z,24.12
2023-08-11T15:16:30.826Z,24.55
2023-08-11T15:18:58.498Z,24.66
2023-08-11T15:21:25.341Z,24.77
2023-08-11T15:23:52.089Z,25.02
2023-08-11T15:26:19.590Z,25.02
2023-08-11T15:28:46.527Z,24.92
2023-08-11T15:31:13.440Z,24.90
2023-08-11T15:33:40.248Z,26.10
2023-08-11T15:36:06.988Z,26.35
2023-08-11T15:38:37.052Z,27.32
2023-08-11T15:41:03.929Z,27.92
2023-08-11T15:43:34.819Z,27.70
2023-08-11T15:46:01.587Z,26.80
2023-08-11T15:48:28.897Z,26.39
2023-08-11T15:50:56.562Z,26.49
2023-08-11T15:53:23.311Z,27.73
2023-08-11T15:55:50.112Z,28.62
2023-08-11T15:58:16.881Z,27.71
2023-08-11T16:00:43.782Z,26.14
2023-08-11T16:03:11.032Z,25.16
2023-08-11T16:05:37.958Z,25.65
2023-08-11T16:08:04.986Z,25.08
2023-08-11T16:10:34.644Z,24.74
2023-08-11T16:13:01.383Z,24.31
2023-08-11T16:15:28.949Z,24.53
2023-08-11T16:17:56.806Z,25.30
2023-08-11T16:20:23.670Z,26.24
2023-08-11T16:22:52.991Z,27.97
2023-08-11T16:25:20.022Z,28.90
2023-08-11T16:27:46.735Z,29.06
2023-08-11T16:30:13.910Z,28.92
2023-08-11T16:32:40.661Z,28.57
2023-08-11T16:35:09.111Z,28.26
2023-08-11T16:37:36.047Z,28.10
2023-08-11T16:40:04.155Z,27.56
2023-08-11T16:42:30.970Z,26.66
2023-08-11T16:44:57.791Z,25.91
2023-08-11T16:47:24.905Z,25.35
2023-08-11T16:49:51.734Z,25.52
2023-08-11T16:52:18.416Z,26.31
2023-08-11T16:54:45.006Z,26.77
2023-08-11T16:57:11.891Z,26.60
2023-08-11T16:59:39.022Z,26.62
2023-08-11T17:02:05.789Z,27.07
2023-08-11T17:04:32.553Z,27.16
2023-08-11T17:06:59.323Z,27.28
2023-08-11T17:09:26.041Z,27.44
2023-08-11T17:11:52.831Z,26.93
2023-08-11T17:14:19.484Z,26.74
2023-08-11T17:16:46.170Z,26.26
2023-08-11T17:19:12.819Z,25.93
2023-08-11T17:21:39.710Z,26.17
2023-08-11T17:24:06.793Z,25.83
2023-08-11T17:26:33.525Z,25.44
2023-08-11T17:29:00.645Z,25.91
2023-08-11T17:31:27.456Z,25.97
2023-08-11T17:33:56.403Z,25.79
2023-08-11T17:36:27.501Z,25.65
2023-08-11T17:38:57.812Z,25.30
2023-08-11T17:41:27.558Z,25.56
2023-08-11T17:43:54.801Z,24.98
2023-08-11T17:46:21.890Z,24.41
2023-08-11T17:48:53.651Z,23.83
2023-08-11T17:51:22.489Z,23.57
2023-08-11T17:54:07.738Z,23.21
2023-08-11T17:56:39.321Z,22.89
2023-08-11T17:59:06.624Z,22.70
2023-08-11T18:01:34.020Z,22.38
2023-08-11T18:04:08.048Z,22.02
2023-08-11T18:06:36.302Z,21.87
2023-08-11T18:09:07.463Z,21.69
2023-08-11T18:11:36.918Z,21.33
2023-08-11T18:14:05.004Z,21.12
2023-08-11T18:16:32.371Z,20.88
2023-08-11T18:19:00.208Z,20.58
2023-08-11T18:21:27.592Z,20.38
2023-08-11T18:23:54.635Z,20.17
2023-08-11T18:26:21.574Z,20.11
2023-08-11T18:28:49.736Z,19.89
2023-08-11T18:31:17.317Z,19.64
2023-08-11T18:33:45.183Z,19.52
2023-08-11T18:36:12.204Z,19.22
2023-08-11T18:38:39.053Z,19.01
2023-08-11T18:41:06.408Z,18.78
2023-08-11T18:43:33.455Z,18.73
2023-08-11T18:46:04.168Z,18.52
2023-08-11T18:48:32.396Z,18.62
2023-08-11T18:51:09.759Z,18.45
2023-08-11T18:53:42.894Z,18.27
2023-08-11T18:56:10.248Z,18.21
2023-08-11T18:58:46.720Z,18.09
2023-08-11T19:01:14.778Z,17.83
2023-08-11T19:03:41.544Z,17.76
2023-08-11T19:06:09.151Z,17.64
2023-08-11T19:08:36.198Z,17.53
2023-08-11T19:11:03.277Z,17.39
2023-08-11T19:13:31.204Z,17.20
2023-08-11T19:15:58.709Z,17.13
2023-08-11T19:18:29.576Z,17.14
2023-08-11T19:20:57.834Z,17.39
2023-08-11T19:23:24.823Z,17.58
2023-08-11T19:25:55.171Z,17.37
2023-08-11T19:28:23.421Z,17.20
2023-08-11T19:30:53.665Z,17.31
2023-08-11T19:33:20.613Z,17.18
2023-08-11T19:35:47.539Z,17.18
2023-08-11T19:38:17.807Z,17.24
2023-08-11T19:40:48.624Z,17.16
2023-08-11T19:43:15.898Z,16.98
2023-08-11T19:46:00.763Z,16.91
2023-08-11T19:48:32.354Z,17.00
2023-08-11T19:50:59.363Z,16.99
2023-08-11T19:53:29.089Z,17.02
2023-08-11T19:55:56.252Z,17.06
2023-08-11T19:58:51.855Z,16.96
2023-08-11T20:01:19.016Z,16.73
2023-08-11T20:03:45.984Z,16.84
2023-08-11T20:06:12.852Z,16.81
2023-08-11T20:08:39.698Z,16.71
2023-08-11T20:11:06.829Z,16.73
2023-08-11T20:13:33.561Z,16.78
2023-08-11T20:16:01.323Z,16.65
2023-08-11T20:18:28.079Z,16.39
2023-08-11T20:20:55.165Z,16.33
2023-08-11T20:23:22.340Z,16.24
2023-08-11T20:25:48.946Z,16.27
2023-08-11T20:28:15.632Z,16.22
2023-08-11T20:30:43.570Z,16.39
2023-08-11T20:33:11.149Z,16.42
2023-08-11T20:35:37.884Z,16.32
2023-08-11T20:38:04.762Z,16.12
2023-08-11T20:40:33.701Z,16.14
2023-08-11T20:43:00.615Z,16.13
2023-08-11T20:45:31.019Z,16.17
2023-08-11T20:47:58.904Z,16.22
2023-08-11T20:50:28.942Z,16.20
2023-08-11T20:52:55.642Z,16.21
2023-08-11T20:55:22.366Z,16.16
2023-08-11T20:57:49.881Z,16.08
2023-08-11T21:00:17.396Z,16.08
2023-08-11T21:02:44.345Z,16.08
2023-08-11T21:05:12.046Z,16.08
2023-08-11T21:07:38.837Z,16.09
2023-08-11T21:10:07.389Z,16.08
2023-08-11T21:12:34.804Z,15.96
2023-08-11T21:15:01.718Z,16.04
2023-08-11T21:17:28.753Z,15.96
2023-08-11T21:19:55.521Z,16.07
2023-08-11T21:22:22.219Z,16.08
2023-08-11T21:24:48.854Z,16.17
2023-08-11T21:27:17.834Z,16.12
2023-08-11T21:29:44.928Z,16.36
2023-08-11T21:32:11.696Z,16.63
2023-08-11T21:34:38.454Z,16.72
2023-08-11T21:37:06.193Z,16.77
2023-08-11T21:39:37.286Z,16.88
2023-08-11T21:42:04.346Z,16.92
2023-08-11T21:44:35.010Z,16.86
2023-08-11T21:47:02.384Z,16.73
2023-08-11T21:49:32.052Z,16.76
2023-08-11T21:51:58.888Z,16.87
2023-08-11T21:54:25.800Z,16.89
2023-08-11T21:56:52.548Z,16.94
2023-08-11T21:59:19.229Z,16.95
2023-08-11T22:01:46.006Z,16.95
2023-08-11T22:04:12.806Z,16.95
2023-08-11T22:06:39.466Z,16.88
2023-08-11T22:09:06.263Z,16.91
2023-08-11T22:11:36.959Z,16.86
2023-08-11T22:14:05.385Z,16.83
2023-08-11T22:16:33.410Z,16.67
2023-08-11T22:19:00.808Z,16.75
2023-08-11T22:21:27.668Z,16.73
2023-08-11T22:23:54.464Z,16.75
2023-08-11T22:26:21.247Z,16.62
2023-08-11T22:28:48.010Z,16.72
2023-08-11T22:31:14.823Z,16.65
2023-08-11T22:33:41.667Z,16.71
2023-08-11T22:36:08.411Z,16.74
2023-08-11T22:38:35.276Z,16.67
2023-08-11T22:41:02.164Z,16.65
2023-08-11T22:43:28.847Z,16.73
2023-08-11T22:45:55.655Z,16.77
2023-08-11T22:48:22.438Z,16.71
2023-08-11T22:50:49.270Z,16.78
2023-08-11T22:53:16.451Z,16.72
2023-08-11T22:55:43.154Z,16.81
2023-08-11T22:58:09.786Z,16.82
2023-08-11T23:00:36.619Z,16.82
2023-08-11T23:03:04.599Z,16.81
2023-08-11T23:05:31.535Z,16.73
2023-08-11T23:07:58.440Z,16.57
2023-08-11T23:10:25.236Z,16.39
2023-08-11T23:12:52.135Z,16.53
2023-08-11T23:15:20.209Z,16.53
2023-08-11T23:17:47.002Z,16.55
2023-08-11T23:20:15.951Z,16.54
2023-08-11T23:22:42.735Z,16.51
2023-08-11T23:25:10.685Z,16.55
2023-08-11T23:27:37.798Z,16.52
2023-08-11T23:30:05.259Z,16.54
2023-08-11T23:32:33.733Z,16.52
2023-08-11T23:35:01.147Z,16.55
2023-08-11T23:37:31.419Z,16.65
2023-08-11T23:39:58.829Z,16.54
2023-08-11T23:42:25.936Z,16.64
2023-08-11T23:44:52.615Z,16.41
2023-08-11T23:47:19.467Z,16.38
2023-08-11T23:49:46.177Z,16.48
2023-08-11T23:52:12.944Z,16.53
2023-08-11T23:54:40.000Z,16.57
2023-08-11T23:57:06.821Z,16.56
2023-08-11T23:59:34.354Z,16.50
